Terminal Aerodrome Forecast
Issued by NWS

Current Version | Previous Version | Text Only | Print | Product List | Glossary On
Versions: 1 2 3 4 5 6 7 8 9 10 11 12 13 14 15 16 17 18 19 20 21 22 23 24 25 26 27 28 29 30 31 32 33
000
FTUS45 KTWC 250435 AAA
TAFOLS
TAF AMD
KOLS 250435Z 2505/2524 18007KT P6SM SCT080 BKN120 OVC200
     FM250530 11020G35KT P6SM -TSRA BKN070CB BKN100
     FM250700 13015KT P6SM VCSH BKN070 BKN100
     FM251000 VRB03KT P6SM SCT120 BKN200
     FM252000 24010KT P6SM SCT070 SCT140=

USA.gov is the U.S. government's official web portal to all federal, state and local government web resources and services.